COUO2: Red River nr Courtney, OK

                                SHEF ID:       COUO2     Red River nr Courtney, OK
STATION TYPE:

PRECIP ELEVATION STAGE RIV-FLOW BAT-LOAD
in ft ft cfs volt
Ccp-Rev Ccp-Rev Ccp-Rev Ccp-Rev Ccp-Rev
(America/Chicago)
04/24 00:00 ---- ---- 12.53 1904 12.73
04/24 01:00 ---- ---- 12.53 1904 12.73
04/24 02:00 ---- ---- 12.55 1921 12.73
04/24 03:00 ---- ---- 12.52 1895 12.73
04/24 04:00 ---- ---- 12.54 1913 12.73
04/24 05:00 ---- ---- 12.56 1930 12.73
04/24 06:00 ---- ---- 12.56 1930 12.65
04/24 07:00 ---- ---- 12.55 1921 12.65
04/24 08:00 ---- ---- 12.52 1895 12.97
04/24 09:00 ---- ---- 12.53 1904 13.44
04/24 10:00 ---- ---- 12.52 1895 13.44
04/24 11:00 ---- ---- 12.52 1895 13.37
04/24 12:00 ---- ---- 12.47 1853 13.44
04/24 13:00 ---- ---- 12.49 1870 13.37
04/24 14:00 ---- ---- 12.48 1862 13.44
04/24 15:00 ---- ---- 12.48 1862 13.44
04/24 16:00 ---- ---- 12.44 1828 13.37
04/24 17:00 ---- ---- 12.47 1853 12.97
04/24 18:00 ---- ---- 12.47 1853 12.89
04/24 19:00 ---- ---- 12.46 1845 12.89
04/24 20:00 ---- ---- 12.44 1828 12.81
04/24 21:00 ---- ---- 12.45 1836 12.81
04/24 22:00 ---- ---- 12.47 1853 12.81
04/24 23:00 ---- ---- 12.46 1845 12.73
Data processed at Sat 25Apr2026 04:41 GMT

NOTICE: If you are parsing this page

Please convert to using our Data API. Starting early 2026 we will be migrating to: https://water.usace.army.mil with modern pages rendered in JavaScript. When this migration completes you will no longer be able to scrape this page! CWMSDataAPI (CDA)

Timeseries IDs (TSIDs)

TSIDs used from left to right in the data table
COUT.Precip-Inc.Total.1Hour.1Hour.Ccp-Rev
COUT.Stage.Inst.1Hour.0.Ccp-Rev
COUT.Flow.Inst.1Hour.0.Ccp-Rev
COUT.Volt-Battery Load.Inst.1Hour.0.Ccp-Rev

                            

All information presented herein is the property of the government of the United States of America and may be revised or deleted at any time without prior notice. Dissemination of this information without the expressed written consent of the Public Affairs Office, Tulsa District U.S. Army Corps of Engineers is strictly prohibited. These data are gathered electronically and, as presented, have NOT undergone any form of quality control. These data are NOT guaranteed to be valid or correct.